CDT,Max TemperatureF,Mean TemperatureF,Min TemperatureF,Max Dew PointF,MeanDew PointF,Min DewpointF,Max Humidity, Mean Humidity, Min Humidity, Max Sea Level PressureIn, Mean Sea Level PressureIn, Min Sea Level PressureIn, Max VisibilityMiles, Mean VisibilityMiles, Min VisibilityMiles, Max Wind SpeedMPH, Mean Wind SpeedMPH, Max Gust SpeedMPH,PrecipitationIn, CloudCover, Events, WindDirDegrees
2013-10-1,74,61,48,52,42,28,82,52,22,29.94,29.77,29.69,10,10,10,20,7,29,0.00,0,,238
2013-10-2,69,52,34,46,35,29,98,56,23,30.09,30.02,29.94,10,10,10,9,4,,0.00,1,,249
2013-10-3,61,53,45,54,48,44,100,82,61,30.04,29.96,29.92,10,9,2,14,5,21,0.81,6,Rain,88
2013-10-4,58,54,50,53,50,48,100,92,70,30.10,30.05,29.97,10,8,2,14,7,18,0.18,8,Rain,66
2013-10-5,54,52,50,54,52,50,100,99,97,30.07,29.92,29.70,10,7,2,15,11,24,0.93,8,Rain,101
2013-10-6,58,51,45,54,48,41,100,89,55,29.72,29.67,29.63,10,7,1,14,6,20,0.17,8,Rain,292
2013-10-7,57,45,34,45,39,32,100,79,40,30.03,29.85,29.68,10,9,1,18,8,25,0.00,3,,312
2013-10-8,70,51,32,42,38,32,100,64,30,30.08,30.03,29.97,10,9,0,14,4,25,0.00,0,Fog,187
2013-10-9,71,61,45,47,44,41,91,56,38,30.13,30.10,30.03,10,10,10,16,6,24,0.00,0,,203
2013-10-10,70,52,34,48,41,35,100,70,32,30.15,30.10,30.05,10,7,0,12,2,17,0.00,0,Fog,162
2013-10-11,70,56,42,53,48,42,100,72,43,30.07,29.99,29.88,10,10,4,17,6,29,0.00,3,,150
2013-10-12,66,56,46,54,44,35,74,61,36,30.04,29.89,29.82,10,10,10,18,10,26,0.00,6,,209
2013-10-13,54,42,30,45,36,29,100,73,39,30.41,30.28,30.05,10,9,1,15,8,18,0.00,5,,293
2013-10-14,56,40,26,42,32,27,100,73,39,30.44,30.34,30.18,10,8,0,8,2,,0.00,1,Fog,123
2013-10-15,51,48,44,51,47,39,100,95,77,30.17,29.86,29.69,10,6,1,17,8,22,0.64,7,Rain,128
2013-10-16,48,38,29,49,40,30,100,95,77,29.88,29.80,29.68,10,8,0,13,7,22,0.14,7,Fog-Rain,334
2013-10-17,53,40,27,43,34,28,100,85,47,29.87,29.79,29.72,10,6,0,12,2,,0.00,7,Fog,308
2013-10-18,42,35,28,41,38,28,100,97,84,29.86,29.80,29.73,10,7,0,13,3,18,0.18,7,Fog-Rain,334
2013-10-19,45,36,27,37,33,27,100,93,54,29.82,29.70,29.62,10,8,0,14,2,24,0.09,6,Fog-Rain,250
2013-10-20,41,36,32,36,33,31,100,94,66,29.77,29.70,29.63,10,8,1,8,3,,0.10,7,Rain-Snow,231
2013-10-21,33,31,29,33,27,20,100,86,64,29.76,29.72,29.64,10,7,1,22,9,31,0.10,8,Snow,273
2013-10-22,38,34,31,32,29,25,100,85,58,29.92,29.85,29.70,10,9,1,17,9,21,0.06,8,Snow,309
2013-10-23,35,32,28,30,26,21,96,79,64,29.92,29.89,29.86,10,9,1,17,7,21,0.01,8,Snow,294
2013-10-24,36,32,28,32,29,24,100,91,78,30.18,30.06,29.92,10,7,0,12,7,17,0.07,7,Snow,295
2013-10-25,46,34,23,35,26,21,100,74,49,30.21,30.00,29.61,10,10,10,17,8,26,0.01,4,Rain,235
2013-10-26,45,40,33,37,30,24,99,77,58,29.99,29.82,29.61,10,9,1,20,11,30,0.05,7,Rain-Snow,308
2013-10-27,50,40,31,34,29,26,99,75,41,30.13,29.90,29.75,10,10,4,18,6,24,0.00,6,Rain-Snow,262
2013-10-28,38,30,22,28,19,14,84,65,39,30.44,30.36,30.15,10,10,5,16,8,23,0.00,4,Snow,38
2013-10-29,34,26,19,33,26,17,100,88,54,30.43,30.28,30.14,10,8,1,7,2,,0.03,6,Rain-Snow,140
2013-10-30,47,40,33,47,40,33,100,100,100,30.13,29.97,29.72,7,2,0,7,2,,0.06,8,Fog-Rain,165
2013-10-31,51,47,43,51,48,43,100,100,99,29.70,29.41,29.20,10,4,0,13,2,17,0.15,8,Fog-Rain,351